Aviation Digital Data Service (ADDS)

Output produced by METARs form (1825 UTC 22 November 2017)
found at http://www.aviationweather.gov/adds/metars/
 
TAF TFFR 221700Z 2218/2318 12008KT 9999 SCT040 
     BECMG 2222/2224 VRB03KT 
     TEMPO 2220/2318 4000 SHRA SCT015TCU